createdAt,value
2019-04-25T00:01:55.201Z,99.90
2019-04-25T00:08:01.438Z,99.90
2019-04-25T00:14:07.005Z,99.90
2019-04-25T00:20:13.463Z,99.90
2019-04-25T00:26:25.576Z,99.90
2019-04-25T00:32:31.587Z,99.90
2019-04-25T00:38:36.298Z,99.90
2019-04-25T00:44:42.832Z,99.90
2019-04-25T00:50:47.985Z,99.90
2019-04-25T00:56:53.788Z,99.90
2019-04-25T01:03:01.846Z,99.90
2019-04-25T01:09:10.023Z,99.90
2019-04-25T01:15:15.591Z,99.90
2019-04-25T01:21:20.207Z,99.90
2019-04-25T01:27:24.919Z,99.90
2019-04-25T01:33:29.763Z,99.90
2019-04-25T01:39:36.097Z,99.90
2019-04-25T01:45:41.299Z,99.90
2019-04-25T01:51:45.826Z,99.90
2019-04-25T01:57:50.934Z,99.90
2019-04-25T02:03:55.763Z,99.90
2019-04-25T02:10:00.343Z,99.90
2019-04-25T02:16:06.666Z,99.90
2019-04-25T02:22:11.281Z,99.90
2019-04-25T02:28:15.984Z,99.90
2019-04-25T02:34:20.517Z,99.90
2019-04-25T02:40:25.278Z,99.90
2019-04-25T02:46:37.464Z,99.90
2019-04-25T02:52:44.402Z,99.90
2019-04-25T02:58:49.969Z,99.90
2019-04-25T03:04:54.822Z,99.90
2019-04-25T03:10:59.842Z,99.90
2019-04-25T03:17:06.920Z,99.90
2019-04-25T03:23:14.515Z,99.90
2019-04-25T03:29:19.409Z,99.90
2019-04-25T03:35:23.971Z,99.90
2019-04-25T03:41:28.590Z,99.90
2019-04-25T03:47:33.308Z,99.90
2019-04-25T03:53:38.116Z,99.90
2019-04-25T03:59:43.789Z,99.90
2019-04-25T04:05:48.536Z,99.90
2019-04-25T04:11:53.452Z,99.90
2019-04-25T04:18:02.286Z,99.90
2019-04-25T04:24:08.546Z,99.90
2019-04-25T04:30:14.469Z,99.90
2019-04-25T04:36:19.509Z,99.90
2019-04-25T04:42:24.069Z,99.90
2019-04-25T04:48:28.667Z,99.90
2019-04-25T04:54:34.448Z,99.90
2019-04-25T05:00:39.187Z,99.90
2019-04-25T05:06:51.072Z,99.90
2019-04-25T05:12:55.610Z,99.90
2019-04-25T05:19:00.175Z,99.90
2019-04-25T05:25:06.628Z,99.90
2019-04-25T05:31:15.408Z,99.90
2019-04-25T05:37:19.669Z,99.90
2019-04-25T05:43:25.922Z,99.90
2019-04-25T05:49:30.555Z,99.90
2019-04-25T05:55:35.141Z,99.90
2019-04-25T06:01:39.796Z,99.90
2019-04-25T06:07:44.307Z,99.90
2019-04-25T06:13:50.516Z,99.90
2019-04-25T06:19:56.800Z,99.90
2019-04-25T06:26:17.046Z,99.90
2019-04-25T06:32:08.611Z,99.90
2019-04-25T06:38:13.556Z,99.90
2019-04-25T06:44:31.415Z,99.90
2019-04-25T06:50:36.001Z,99.90
2019-04-25T06:56:40.546Z,99.90
2019-04-25T07:02:45.246Z,99.90
2019-04-25T07:08:49.795Z,99.90
2019-04-25T07:14:54.365Z,99.90
2019-04-25T07:20:58.919Z,99.90
2019-04-25T07:27:15.426Z,99.90
2019-04-25T07:33:23.322Z,99.90
2019-04-25T07:39:27.978Z,99.90
2019-04-25T07:45:34.676Z,99.90
2019-04-25T07:51:38.869Z,99.90
2019-04-25T07:57:44.255Z,99.90
2019-04-25T08:03:49.177Z,99.90
2019-04-25T08:09:54.181Z,99.90
2019-04-25T08:16:00.630Z,99.90
2019-04-25T08:28:05.351Z,99.90
2019-04-25T08:34:09.961Z,99.90
2019-04-25T08:40:15.329Z,99.90
2019-04-25T08:46:20.014Z,99.90
2019-04-25T08:52:24.652Z,99.90
2019-04-25T08:58:36.859Z,99.90
2019-04-25T09:04:44.604Z,99.90
2019-04-25T09:10:49.219Z,99.90
2019-04-25T09:16:53.762Z,99.90
2019-04-25T09:22:58.314Z,99.90
2019-04-25T09:29:16.306Z,99.90
2019-04-25T09:35:09.807Z,99.90
2019-04-25T09:41:15.322Z,99.90
2019-04-25T09:47:20.224Z,99.90
2019-04-25T09:53:25.974Z,99.90
2019-04-25T09:59:30.645Z,99.90
2019-04-25T10:05:36.835Z,99.90
2019-04-25T10:11:42.152Z,99.90
2019-04-25T10:17:47.985Z,99.90
2019-04-25T10:23:53.479Z,99.90
2019-04-25T10:29:58.206Z,99.90
2019-04-25T10:36:04.205Z,93.50
2019-04-25T10:42:09.031Z,84.90
2019-04-25T10:48:13.764Z,83.60
2019-04-25T10:54:18.370Z,73.30
2019-04-25T11:00:29.141Z,67.50
2019-04-25T11:06:33.947Z,60.50
2019-04-25T11:12:38.551Z,62.50
2019-04-25T11:18:45.000Z,56.50
2019-04-25T11:24:49.555Z,56.30
2019-04-25T11:30:55.526Z,53.90
2019-04-25T11:37:00.611Z,54.90
2019-04-25T11:43:05.588Z,50.70
2019-04-25T11:49:10.874Z,50.80
2019-04-25T11:55:16.665Z,47.40
2019-04-25T12:01:21.318Z,49.00
2019-04-25T12:07:26.036Z,47.00
2019-04-25T12:13:30.676Z,43.70
2019-04-25T12:19:37.938Z,47.00
2019-04-25T12:25:41.503Z,43.80
2019-04-25T12:31:46.818Z,44.40
2019-04-25T12:37:53.715Z,43.90
2019-04-25T12:44:15.954Z,44.90
2019-04-25T12:50:21.242Z,44.30
2019-04-25T12:56:25.798Z,42.80
2019-04-25T13:02:30.369Z,42.60
2019-04-25T13:08:35.000Z,44.60
2019-04-25T13:14:39.547Z,42.10
2019-04-25T13:20:44.106Z,39.70
2019-04-25T13:27:03.603Z,43.50
2019-04-25T13:33:26.131Z,45.70
2019-04-25T13:39:31.868Z,44.80
2019-04-25T13:45:36.411Z,46.40
2019-04-25T13:51:40.967Z,44.80
2019-04-25T13:57:45.500Z,49.40
2019-04-25T14:03:50.132Z,50.10
2019-04-25T14:09:54.750Z,47.10
2019-04-25T14:16:03.871Z,47.80
2019-04-25T14:22:08.662Z,44.00
2019-04-25T14:28:14.124Z,43.30
2019-04-25T14:34:18.988Z,41.30
2019-04-25T14:40:25.726Z,39.60
2019-04-25T14:46:30.031Z,41.90
2019-04-25T14:52:35.587Z,45.50
2019-04-25T14:58:42.018Z,41.80
2019-04-25T15:04:46.662Z,41.60
2019-04-25T15:10:51.287Z,40.40
2019-04-25T15:16:55.837Z,42.00
2019-04-25T15:23:00.503Z,37.80
2019-04-25T15:29:06.149Z,37.70
2019-04-25T15:35:12.455Z,39.10
2019-04-25T15:41:19.653Z,37.30
2019-04-25T15:47:26.453Z,38.80
2019-04-25T15:53:31.101Z,37.80
2019-04-25T15:59:35.785Z,37.70
2019-04-25T16:05:40.486Z,38.00
2019-04-25T16:11:45.042Z,39.20
2019-04-25T16:17:49.962Z,39.40
2019-04-25T16:23:54.531Z,40.00
2019-04-25T16:29:59.085Z,41.40
2019-04-25T16:36:03.904Z,39.20
2019-04-25T16:42:08.795Z,41.60
2019-04-25T16:48:14.186Z,41.40
2019-04-25T16:54:18.811Z,43.40
2019-04-25T17:00:25.255Z,43.10
2019-04-25T17:06:30.514Z,44.00
2019-04-25T17:12:36.514Z,47.90
2019-04-25T17:18:42.825Z,49.00
2019-04-25T17:24:47.381Z,48.60
2019-04-25T17:30:59.338Z,52.80
2019-04-25T17:37:08.759Z,53.70
2019-04-25T17:43:13.320Z,52.20
2019-04-25T17:49:17.957Z,55.40
2019-04-25T17:55:22.511Z,54.00
2019-04-25T18:01:27.196Z,53.80
2019-04-25T18:07:31.747Z,55.50
2019-04-25T18:13:38.824Z,58.20
2019-04-25T18:19:50.097Z,58.70
2019-04-25T18:25:58.984Z,60.60
2019-04-25T18:32:03.703Z,59.70
2019-04-25T18:38:26.315Z,62.60
2019-04-25T18:44:30.949Z,61.10
2019-04-25T18:50:36.218Z,66.40
2019-04-25T18:56:49.709Z,68.40
2019-04-25T19:03:22.211Z,69.10
2019-04-25T19:09:18.794Z,66.00
2019-04-25T19:15:23.352Z,63.20
2019-04-25T19:21:27.914Z,60.40
2019-04-25T19:27:32.602Z,65.70
2019-04-25T19:33:39.265Z,68.90
2019-04-25T19:39:52.024Z,69.90
2019-04-25T19:45:56.645Z,74.60
2019-04-25T19:52:01.196Z,80.70
2019-04-25T19:58:06.354Z,85.10
2019-04-25T20:04:12.628Z,92.90
2019-04-25T20:10:34.886Z,93.20
2019-04-25T20:16:45.654Z,98.30
2019-04-25T20:22:50.650Z,99.90
2019-04-25T20:28:55.433Z,99.90
2019-04-25T20:35:00.101Z,99.90
2019-04-25T20:41:04.707Z,99.90
2019-04-25T20:47:09.360Z,99.90
2019-04-25T20:53:13.927Z,99.90
2019-04-25T20:59:18.477Z,99.90
2019-04-25T21:05:23.132Z,99.90
2019-04-25T21:11:27.701Z,99.90
2019-04-25T21:17:32.219Z,99.90
2019-04-25T21:23:36.842Z,99.90
2019-04-25T21:29:41.392Z,99.90
2019-04-25T21:35:46.221Z,99.90
2019-04-25T21:41:51.433Z,99.90
2019-04-25T21:47:57.079Z,99.90
2019-04-25T21:54:03.717Z,99.90
2019-04-25T22:00:15.353Z,99.90
2019-04-25T22:06:20.326Z,99.90
2019-04-25T22:12:24.941Z,99.90
2019-04-25T22:18:29.712Z,99.90
2019-04-25T22:24:34.270Z,99.90
2019-04-25T22:30:40.397Z,99.90
2019-04-25T22:36:45.031Z,99.90
2019-04-25T22:42:49.652Z,99.90
2019-04-25T22:48:54.271Z,99.90
2019-04-25T22:54:59.873Z,99.90
2019-04-25T23:01:07.291Z,99.90
2019-04-25T23:07:12.353Z,99.90
2019-04-25T23:13:16.923Z,99.90
2019-04-25T23:19:21.528Z,99.90
2019-04-25T23:25:28.116Z,99.90
2019-04-25T23:31:40.333Z,99.90
2019-04-25T23:37:45.429Z,99.90
2019-04-25T23:43:49.993Z,99.90
2019-04-25T23:49:54.589Z,99.90
2019-04-25T23:55:59.555Z,99.90
